sensor_id;sensor_type;location;lat;lon;timestamp;temperature;humidity
17092;DHT22;8661;45.700;4.880;2023-04-25T00:00:17;12.40;99.90
17092;DHT22;8661;45.700;4.880;2023-04-25T00:02:46;12.40;99.90
17092;DHT22;8661;45.700;4.880;2023-04-25T00:05:14;12.30;99.90
17092;DHT22;8661;45.700;4.880;2023-04-25T00:07:41;12.20;99.90
17092;DHT22;8661;45.700;4.880;2023-04-25T00:10:09;12.20;99.90
17092;DHT22;8661;45.700;4.880;2023-04-25T00:12:36;12.10;99.90
17092;DHT22;8661;45.700;4.880;2023-04-25T00:15:05;12.10;99.90
17092;DHT22;8661;45.700;4.880;2023-04-25T00:17:32;12.10;99.90
17092;DHT22;8661;45.700;4.880;2023-04-25T00:20:00;12.00;99.90
17092;DHT22;8661;45.700;4.880;2023-04-25T00:22:32;12.00;99.90
17092;DHT22;8661;45.700;4.880;2023-04-25T00:24:59;11.90;99.90
17092;DHT22;8661;45.700;4.880;2023-04-25T00:27:26;11.90;99.90
17092;DHT22;8661;45.700;4.880;2023-04-25T00:29:53;11.80;99.90
17092;DHT22;8661;45.700;4.880;2023-04-25T00:32:20;11.80;99.90
17092;DHT22;8661;45.700;4.880;2023-04-25T00:34:47;11.80;99.90
17092;DHT22;8661;45.700;4.880;2023-04-25T00:37:14;11.80;99.90
17092;DHT22;8661;45.700;4.880;2023-04-25T00:39:42;11.80;99.90
17092;DHT22;8661;45.700;4.880;2023-04-25T00:42:10;11.70;99.90
17092;DHT22;8661;45.700;4.880;2023-04-25T00:44:37;11.80;99.90
17092;DHT22;8661;45.700;4.880;2023-04-25T00:47:05;11.80;99.90
17092;DHT22;8661;45.700;4.880;2023-04-25T00:49:32;11.80;99.90
17092;DHT22;8661;45.700;4.880;2023-04-25T00:51:59;11.80;99.90
17092;DHT22;8661;45.700;4.880;2023-04-25T00:54:26;11.80;99.90
17092;DHT22;8661;45.700;4.880;2023-04-25T00:56:54;11.80;99.90
17092;DHT22;8661;45.700;4.880;2023-04-25T00:59:21;11.90;99.90
17092;DHT22;8661;45.700;4.880;2023-04-25T01:01:48;11.90;99.90
17092;DHT22;8661;45.700;4.880;2023-04-25T01:04:15;11.90;99.90
17092;DHT22;8661;45.700;4.880;2023-04-25T01:06:42;11.90;99.90
17092;DHT22;8661;45.700;4.880;2023-04-25T01:09:09;11.90;99.90
17092;DHT22;8661;45.700;4.880;2023-04-25T01:11:36;11.90;99.90
17092;DHT22;8661;45.700;4.880;2023-04-25T01:14:07;11.90;99.90
17092;DHT22;8661;45.700;4.880;2023-04-25T01:16:33;11.90;99.90
17092;DHT22;8661;45.700;4.880;2023-04-25T01:19:01;11.90;99.90
17092;DHT22;8661;45.700;4.880;2023-04-25T01:21:32;11.90;99.90
17092;DHT22;8661;45.700;4.880;2023-04-25T01:23:59;12.00;99.90
17092;DHT22;8661;45.700;4.880;2023-04-25T01:26:27;12.00;99.90
17092;DHT22;8661;45.700;4.880;2023-04-25T01:28:53;12.00;99.90
17092;DHT22;8661;45.700;4.880;2023-04-25T01:31:21;11.90;99.90
17092;DHT22;8661;45.700;4.880;2023-04-25T01:33:48;11.90;99.90
17092;DHT22;8661;45.700;4.880;2023-04-25T01:36:15;11.90;99.90
17092;DHT22;8661;45.700;4.880;2023-04-25T01:38:43;11.90;99.90
17092;DHT22;8661;45.700;4.880;2023-04-25T01:41:13;11.90;99.90
17092;DHT22;8661;45.700;4.880;2023-04-25T01:43:40;11.90;99.90
17092;DHT22;8661;45.700;4.880;2023-04-25T01:46:07;11.90;99.90
17092;DHT22;8661;45.700;4.880;2023-04-25T01:48:34;11.80;99.90
17092;DHT22;8661;45.700;4.880;2023-04-25T01:51:00;11.90;99.90
17092;DHT22;8661;45.700;4.880;2023-04-25T01:53:27;11.90;99.90
17092;DHT22;8661;45.700;4.880;2023-04-25T01:55:56;11.80;99.90
17092;DHT22;8661;45.700;4.880;2023-04-25T01:58:22;11.80;99.90
17092;DHT22;8661;45.700;4.880;2023-04-25T02:00:49;11.80;99.90
17092;DHT22;8661;45.700;4.880;2023-04-25T02:03:16;11.80;99.90
17092;DHT22;8661;45.700;4.880;2023-04-25T02:05:43;11.80;99.90
17092;DHT22;8661;45.700;4.880;2023-04-25T02:08:10;11.80;99.90
17092;DHT22;8661;45.700;4.880;2023-04-25T02:10:37;11.90;99.90
17092;DHT22;8661;45.700;4.880;2023-04-25T02:13:05;11.90;99.90
17092;DHT22;8661;45.700;4.880;2023-04-25T02:15:32;11.90;99.90
17092;DHT22;8661;45.700;4.880;2023-04-25T02:17:59;11.90;99.90
17092;DHT22;8661;45.700;4.880;2023-04-25T02:20:27;11.90;99.90
17092;DHT22;8661;45.700;4.880;2023-04-25T02:22:54;11.90;99.90
17092;DHT22;8661;45.700;4.880;2023-04-25T02:25:21;11.90;99.90
17092;DHT22;8661;45.700;4.880;2023-04-25T02:27:51;11.90;99.90
17092;DHT22;8661;45.700;4.880;2023-04-25T02:30:19;11.90;99.90
17092;DHT22;8661;45.700;4.880;2023-04-25T02:32:46;11.90;99.90
17092;DHT22;8661;45.700;4.880;2023-04-25T02:35:13;11.90;99.90
17092;DHT22;8661;45.700;4.880;2023-04-25T02:37:40;11.90;99.90
17092;DHT22;8661;45.700;4.880;2023-04-25T02:40:08;11.90;99.90
17092;DHT22;8661;45.700;4.880;2023-04-25T02:42:35;11.90;99.90
17092;DHT22;8661;45.700;4.880;2023-04-25T02:45:03;11.90;99.90
17092;DHT22;8661;45.700;4.880;2023-04-25T02:47:31;11.90;99.90
17092;DHT22;8661;45.700;4.880;2023-04-25T02:49:58;11.90;99.90
17092;DHT22;8661;45.700;4.880;2023-04-25T02:52:25;11.90;99.90
17092;DHT22;8661;45.700;4.880;2023-04-25T02:54:51;11.90;99.90
17092;DHT22;8661;45.700;4.880;2023-04-25T02:57:18;11.90;99.90
17092;DHT22;8661;45.700;4.880;2023-04-25T02:59:45;11.90;99.90
17092;DHT22;8661;45.700;4.880;2023-04-25T03:02:12;11.90;99.90
17092;DHT22;8661;45.700;4.880;2023-04-25T03:04:40;11.80;99.90
17092;DHT22;8661;45.700;4.880;2023-04-25T03:07:07;11.80;99.90
17092;DHT22;8661;45.700;4.880;2023-04-25T03:09:34;11.80;99.90
17092;DHT22;8661;45.700;4.880;2023-04-25T03:12:01;11.80;99.90
17092;DHT22;8661;45.700;4.880;2023-04-25T03:14:28;11.80;99.90
17092;DHT22;8661;45.700;4.880;2023-04-25T03:16:55;11.80;99.90
17092;DHT22;8661;45.700;4.880;2023-04-25T03:19:22;11.80;99.90
17092;DHT22;8661;45.700;4.880;2023-04-25T03:21:50;11.80;99.90
17092;DHT22;8661;45.700;4.880;2023-04-25T03:24:17;11.80;99.90
17092;DHT22;8661;45.700;4.880;2023-04-25T03:26:44;11.80;99.90
17092;DHT22;8661;45.700;4.880;2023-04-25T03:29:10;11.80;99.90
17092;DHT22;8661;45.700;4.880;2023-04-25T03:31:38;11.80;99.90
17092;DHT22;8661;45.700;4.880;2023-04-25T03:34:05;11.80;99.90
17092;DHT22;8661;45.700;4.880;2023-04-25T03:36:32;11.80;99.90
17092;DHT22;8661;45.700;4.880;2023-04-25T03:39:00;11.80;99.90
17092;DHT22;8661;45.700;4.880;2023-04-25T03:41:27;11.80;99.90
17092;DHT22;8661;45.700;4.880;2023-04-25T03:43:55;11.80;99.90
17092;DHT22;8661;45.700;4.880;2023-04-25T03:46:22;11.70;99.90
17092;DHT22;8661;45.700;4.880;2023-04-25T03:48:49;11.70;99.90
17092;DHT22;8661;45.700;4.880;2023-04-25T03:51:15;11.70;99.90
17092;DHT22;8661;45.700;4.880;2023-04-25T03:53:42;11.70;99.90
17092;DHT22;8661;45.700;4.880;2023-04-25T03:56:10;11.70;99.90
17092;DHT22;8661;45.700;4.880;2023-04-25T03:58:37;11.70;99.90
17092;DHT22;8661;45.700;4.880;2023-04-25T04:01:04;11.70;99.90
17092;DHT22;8661;45.700;4.880;2023-04-25T04:03:33;11.70;99.90
17092;DHT22;8661;45.700;4.880;2023-04-25T04:06:00;11.70;99.90
17092;DHT22;8661;45.700;4.880;2023-04-25T04:08:28;11.70;99.90
17092;DHT22;8661;45.700;4.880;2023-04-25T04:10:55;11.70;99.90
17092;DHT22;8661;45.700;4.880;2023-04-25T04:13:23;11.70;99.90
17092;DHT22;8661;45.700;4.880;2023-04-25T04:15:50;11.70;99.90
17092;DHT22;8661;45.700;4.880;2023-04-25T04:18:17;11.70;99.90
17092;DHT22;8661;45.700;4.880;2023-04-25T04:20:44;11.70;99.90
17092;DHT22;8661;45.700;4.880;2023-04-25T04:23:11;11.60;99.90
17092;DHT22;8661;45.700;4.880;2023-04-25T04:25:38;11.60;99.90
17092;DHT22;8661;45.700;4.880;2023-04-25T04:28:05;11.60;99.90
17092;DHT22;8661;45.700;4.880;2023-04-25T04:30:34;11.60;99.90
17092;DHT22;8661;45.700;4.880;2023-04-25T04:33:03;11.60;99.90
17092;DHT22;8661;45.700;4.880;2023-04-25T04:35:30;11.50;99.90
17092;DHT22;8661;45.700;4.880;2023-04-25T04:37:57;11.50;99.90
17092;DHT22;8661;45.700;4.880;2023-04-25T04:40:24;11.50;99.90
17092;DHT22;8661;45.700;4.880;2023-04-25T04:42:51;11.40;99.90
17092;DHT22;8661;45.700;4.880;2023-04-25T04:45:18;11.30;99.90
17092;DHT22;8661;45.700;4.880;2023-04-25T04:47:47;11.30;99.90
17092;DHT22;8661;45.700;4.880;2023-04-25T04:50:15;11.20;99.90
17092;DHT22;8661;45.700;4.880;2023-04-25T04:52:41;11.20;99.90
17092;DHT22;8661;45.700;4.880;2023-04-25T04:55:09;11.10;99.90
17092;DHT22;8661;45.700;4.880;2023-04-25T04:57:36;11.10;99.90
17092;DHT22;8661;45.700;4.880;2023-04-25T05:00:05;11.20;99.90
17092;DHT22;8661;45.700;4.880;2023-04-25T05:02:36;11.20;99.90
17092;DHT22;8661;45.700;4.880;2023-04-25T05:05:05;11.20;99.90
17092;DHT22;8661;45.700;4.880;2023-04-25T05:07:33;11.20;99.90
17092;DHT22;8661;45.700;4.880;2023-04-25T05:10:00;11.20;99.90
17092;DHT22;8661;45.700;4.880;2023-04-25T05:12:27;11.30;99.90
17092;DHT22;8661;45.700;4.880;2023-04-25T05:14:54;11.30;99.90
17092;DHT22;8661;45.700;4.880;2023-04-25T05:17:20;11.30;99.90
17092;DHT22;8661;45.700;4.880;2023-04-25T05:19:47;11.30;99.90
17092;DHT22;8661;45.700;4.880;2023-04-25T05:22:16;11.30;99.90
17092;DHT22;8661;45.700;4.880;2023-04-25T05:24:42;11.30;99.90
17092;DHT22;8661;45.700;4.880;2023-04-25T05:27:09;11.30;99.90
17092;DHT22;8661;45.700;4.880;2023-04-25T05:29:36;11.30;99.90
17092;DHT22;8661;45.700;4.880;2023-04-25T05:32:04;11.30;99.90
17092;DHT22;8661;45.700;4.880;2023-04-25T05:34:31;11.30;99.90
17092;DHT22;8661;45.700;4.880;2023-04-25T05:36:58;11.40;99.90
17092;DHT22;8661;45.700;4.880;2023-04-25T05:39:26;11.50;99.90
17092;DHT22;8661;45.700;4.880;2023-04-25T05:41:53;11.50;99.90
17092;DHT22;8661;45.700;4.880;2023-04-25T05:44:21;11.50;99.90
17092;DHT22;8661;45.700;4.880;2023-04-25T05:46:48;11.50;99.90
17092;DHT22;8661;45.700;4.880;2023-04-25T05:49:15;11.50;99.90
17092;DHT22;8661;45.700;4.880;2023-04-25T05:51:42;11.60;99.90
17092;DHT22;8661;45.700;4.880;2023-04-25T05:54:08;11.60;99.90
17092;DHT22;8661;45.700;4.880;2023-04-25T05:56:37;11.50;99.90
17092;DHT22;8661;45.700;4.880;2023-04-25T05:59:04;11.60;99.90
17092;DHT22;8661;45.700;4.880;2023-04-25T06:01:31;11.60;99.90
17092;DHT22;8661;45.700;4.880;2023-04-25T06:03:58;11.60;99.90
17092;DHT22;8661;45.700;4.880;2023-04-25T06:06:25;11.70;99.90
17092;DHT22;8661;45.700;4.880;2023-04-25T06:08:53;11.70;99.90
17092;DHT22;8661;45.700;4.880;2023-04-25T06:11:20;11.80;99.90
17092;DHT22;8661;45.700;4.880;2023-04-25T06:13:48;12.00;99.90
17092;DHT22;8661;45.700;4.880;2023-04-25T06:16:15;12.00;99.90
17092;DHT22;8661;45.700;4.880;2023-04-25T06:18:42;12.20;99.90
17092;DHT22;8661;45.700;4.880;2023-04-25T06:21:09;12.30;99.90
17092;DHT22;8661;45.700;4.880;2023-04-25T06:23:36;12.40;99.90
17092;DHT22;8661;45.700;4.880;2023-04-25T06:26:03;12.40;99.90
17092;DHT22;8661;45.700;4.880;2023-04-25T06:28:30;12.50;99.90
17092;DHT22;8661;45.700;4.880;2023-04-25T06:30:58;12.60;99.90
17092;DHT22;8661;45.700;4.880;2023-04-25T06:33:25;12.70;99.90
17092;DHT22;8661;45.700;4.880;2023-04-25T06:35:52;12.80;99.90
17092;DHT22;8661;45.700;4.880;2023-04-25T06:38:19;12.90;99.90
17092;DHT22;8661;45.700;4.880;2023-04-25T06:40:46;13.00;99.90
17092;DHT22;8661;45.700;4.880;2023-04-25T06:43:12;13.00;99.90
17092;DHT22;8661;45.700;4.880;2023-04-25T06:45:40;13.00;99.90
17092;DHT22;8661;45.700;4.880;2023-04-25T06:48:09;13.20;99.90
17092;DHT22;8661;45.700;4.880;2023-04-25T06:50:35;13.70;99.90
17092;DHT22;8661;45.700;4.880;2023-04-25T06:53:03;14.00;99.90
17092;DHT22;8661;45.700;4.880;2023-04-25T06:55:29;14.60;99.90
17092;DHT22;8661;45.700;4.880;2023-04-25T06:57:56;15.20;99.90
17092;DHT22;8661;45.700;4.880;2023-04-25T07:00:23;15.50;99.90
17092;DHT22;8661;45.700;4.880;2023-04-25T07:02:50;15.70;99.90
17092;DHT22;8661;45.700;4.880;2023-04-25T07:05:18;16.00;99.90
17092;DHT22;8661;45.700;4.880;2023-04-25T07:07:46;16.50;99.90
17092;DHT22;8661;45.700;4.880;2023-04-25T07:10:13;17.10;99.90
17092;DHT22;8661;45.700;4.880;2023-04-25T07:12:40;17.30;99.90
17092;DHT22;8661;45.700;4.880;2023-04-25T07:15:08;17.60;99.90
17092;DHT22;8661;45.700;4.880;2023-04-25T07:17:36;18.30;99.90
17092;DHT22;8661;45.700;4.880;2023-04-25T07:20:03;18.80;99.90
17092;DHT22;8661;45.700;4.880;2023-04-25T07:22:32;18.70;97.80
17092;DHT22;8661;45.700;4.880;2023-04-25T07:25:00;18.50;97.20
17092;DHT22;8661;45.700;4.880;2023-04-25T07:27:27;18.30;97.00
17092;DHT22;8661;45.700;4.880;2023-04-25T07:29:53;18.10;96.40
17092;DHT22;8661;45.700;4.880;2023-04-25T07:32:20;18.40;97.00
17092;DHT22;8661;45.700;4.880;2023-04-25T07:34:47;19.00;95.20
17092;DHT22;8661;45.700;4.880;2023-04-25T07:37:14;19.60;94.20
17092;DHT22;8661;45.700;4.880;2023-04-25T07:39:43;20.40;93.70
17092;DHT22;8661;45.700;4.880;2023-04-25T07:42:11;21.20;91.80
17092;DHT22;8661;45.700;4.880;2023-04-25T07:44:38;21.70;90.30
17092;DHT22;8661;45.700;4.880;2023-04-25T07:47:05;22.40;88.60
17092;DHT22;8661;45.700;4.880;2023-04-25T07:49:33;22.80;84.60
17092;DHT22;8661;45.700;4.880;2023-04-25T07:52:01;22.80;83.80
17092;DHT22;8661;45.700;4.880;2023-04-25T07:54:28;23.00;82.00
17092;DHT22;8661;45.700;4.880;2023-04-25T07:56:56;23.80;80.80
17092;DHT22;8661;45.700;4.880;2023-04-25T07:59:23;24.40;77.40
17092;DHT22;8661;45.700;4.880;2023-04-25T08:01:51;24.40;75.40
17092;DHT22;8661;45.700;4.880;2023-04-25T08:04:17;24.20;74.60
17092;DHT22;8661;45.700;4.880;2023-04-25T08:06:44;24.10;73.80
17092;DHT22;8661;45.700;4.880;2023-04-25T08:09:14;24.40;73.20
17092;DHT22;8661;45.700;4.880;2023-04-25T08:11:41;24.80;72.80
17092;DHT22;8661;45.700;4.880;2023-04-25T08:14:11;24.40;71.50
17092;DHT22;8661;45.700;4.880;2023-04-25T08:16:38;23.60;72.80
17092;DHT22;8661;45.700;4.880;2023-04-25T08:19:05;22.90;72.70
17092;DHT22;8661;45.700;4.880;2023-04-25T08:21:32;22.90;72.70
17092;DHT22;8661;45.700;4.880;2023-04-25T08:23:59;23.20;73.50
17092;DHT22;8661;45.700;4.880;2023-04-25T08:26:26;23.80;72.30
17092;DHT22;8661;45.700;4.880;2023-04-25T08:28:53;23.80;71.20
17092;DHT22;8661;45.700;4.880;2023-04-25T08:31:21;23.50;70.80
17092;DHT22;8661;45.700;4.880;2023-04-25T08:33:48;23.50;69.50
17092;DHT22;8661;45.700;4.880;2023-04-25T08:36:16;23.50;68.90
17092;DHT22;8661;45.700;4.880;2023-04-25T08:38:44;23.20;69.20
17092;DHT22;8661;45.700;4.880;2023-04-25T08:41:11;23.20;69.60
17092;DHT22;8661;45.700;4.880;2023-04-25T08:43:42;23.80;69.30
17092;DHT22;8661;45.700;4.880;2023-04-25T08:46:09;24.20;66.10
17092;DHT22;8661;45.700;4.880;2023-04-25T08:48:37;24.30;65.10
17092;DHT22;8661;45.700;4.880;2023-04-25T08:51:07;23.80;64.80
17092;DHT22;8661;45.700;4.880;2023-04-25T08:53:34;23.50;64.50
17092;DHT22;8661;45.700;4.880;2023-04-25T08:56:01;23.30;66.40
17092;DHT22;8661;45.700;4.880;2023-04-25T08:58:29;23.40;66.50
17092;DHT22;8661;45.700;4.880;2023-04-25T09:00:56;23.50;64.90
17092;DHT22;8661;45.700;4.880;2023-04-25T09:03:22;22.90;65.10
17092;DHT22;8661;45.700;4.880;2023-04-25T09:05:51;22.50;65.90
17092;DHT22;8661;45.700;4.880;2023-04-25T09:08:20;21.90;66.90
17092;DHT22;8661;45.700;4.880;2023-04-25T09:10:47;22.30;67.00
17092;DHT22;8661;45.700;4.880;2023-04-25T09:13:20;23.50;66.70
17092;DHT22;8661;45.700;4.880;2023-04-25T09:15:51;24.60;63.60
17092;DHT22;8661;45.700;4.880;2023-04-25T09:18:25;25.10;61.00
17092;DHT22;8661;45.700;4.880;2023-04-25T09:20:55;25.10;60.70
17092;DHT22;8661;45.700;4.880;2023-04-25T09:23:23;25.00;61.30
17092;DHT22;8661;45.700;4.880;2023-04-25T09:25:52;24.10;61.70
17092;DHT22;8661;45.700;4.880;2023-04-25T09:28:24;23.80;63.50
17092;DHT22;8661;45.700;4.880;2023-04-25T09:30:55;24.50;62.10
17092;DHT22;8661;45.700;4.880;2023-04-25T09:33:28;24.90;61.20
17092;DHT22;8661;45.700;4.880;2023-04-25T09:36:02;25.90;60.70
17092;DHT22;8661;45.700;4.880;2023-04-25T09:38:30;26.90;57.60
17092;DHT22;8661;45.700;4.880;2023-04-25T09:40:57;27.70;56.70
17092;DHT22;8661;45.700;4.880;2023-04-25T09:43:25;27.60;56.40
17092;DHT22;8661;45.700;4.880;2023-04-25T09:45:53;28.20;55.90
17092;DHT22;8661;45.700;4.880;2023-04-25T09:48:26;28.60;55.20
17092;DHT22;8661;45.700;4.880;2023-04-25T09:51:08;28.80;55.40
17092;DHT22;8661;45.700;4.880;2023-04-25T09:53:36;29.10;56.10
17092;DHT22;8661;45.700;4.880;2023-04-25T09:56:05;29.50;55.10
17092;DHT22;8661;45.700;4.880;2023-04-25T09:58:33;29.00;53.80
17092;DHT22;8661;45.700;4.880;2023-04-25T10:01:02;27.80;55.50
17092;DHT22;8661;45.700;4.880;2023-04-25T10:03:31;26.90;55.40
17092;DHT22;8661;45.700;4.880;2023-04-25T10:05:59;27.10;55.80
17092;DHT22;8661;45.700;4.880;2023-04-25T10:08:31;27.50;55.30
17092;DHT22;8661;45.700;4.880;2023-04-25T10:11:00;28.00;55.50
17092;DHT22;8661;45.700;4.880;2023-04-25T10:13:28;28.90;55.50
17092;DHT22;8661;45.700;4.880;2023-04-25T10:15:57;29.40;54.20
17092;DHT22;8661;45.700;4.880;2023-04-25T10:18:25;29.30;53.30
17092;DHT22;8661;45.700;4.880;2023-04-25T10:20:52;29.30;53.10
17092;DHT22;8661;45.700;4.880;2023-04-25T10:23:20;29.20;53.20
17092;DHT22;8661;45.700;4.880;2023-04-25T10:25:49;28.70;53.10
17092;DHT22;8661;45.700;4.880;2023-04-25T10:28:17;28.40;53.30
17092;DHT22;8661;45.700;4.880;2023-04-25T10:30:59;28.30;53.70
17092;DHT22;8661;45.700;4.880;2023-04-25T10:33:36;27.30;53.80
17092;DHT22;8661;45.700;4.880;2023-04-25T10:36:11;26.30;55.40
17092;DHT22;8661;45.700;4.880;2023-04-25T10:38:39;25.40;56.50
17092;DHT22;8661;45.700;4.880;2023-04-25T10:41:08;25.00;57.00
17092;DHT22;8661;45.700;4.880;2023-04-25T10:43:37;24.70;57.80
17092;DHT22;8661;45.700;4.880;2023-04-25T10:46:18;24.90;58.60
17092;DHT22;8661;45.700;4.880;2023-04-25T10:48:47;25.50;58.50
17092;DHT22;8661;45.700;4.880;2023-04-25T10:51:19;26.40;58.00
17092;DHT22;8661;45.700;4.880;2023-04-25T10:53:47;27.50;56.50
17092;DHT22;8661;45.700;4.880;2023-04-25T10:56:26;28.00;55.30
17092;DHT22;8661;45.700;4.880;2023-04-25T10:59:04;28.40;54.50
17092;DHT22;8661;45.700;4.880;2023-04-25T11:01:36;28.60;54.10
17092;DHT22;8661;45.700;4.880;2023-04-25T11:04:03;28.70;53.60
17092;DHT22;8661;45.700;4.880;2023-04-25T11:06:42;28.90;53.40
17092;DHT22;8661;45.700;4.880;2023-04-25T11:09:12;29.20;52.30
17092;DHT22;8661;45.700;4.880;2023-04-25T11:11:41;29.10;53.10
17092;DHT22;8661;45.700;4.880;2023-04-25T11:14:08;29.10;52.20
17092;DHT22;8661;45.700;4.880;2023-04-25T11:16:35;29.00;52.80
17092;DHT22;8661;45.700;4.880;2023-04-25T11:19:02;29.30;52.40
17092;DHT22;8661;45.700;4.880;2023-04-25T11:21:30;28.60;52.20
17092;DHT22;8661;45.700;4.880;2023-04-25T11:23:59;28.20;52.00
17092;DHT22;8661;45.700;4.880;2023-04-25T11:26:26;28.00;52.20
17092;DHT22;8661;45.700;4.880;2023-04-25T11:28:58;28.50;52.70
17092;DHT22;8661;45.700;4.880;2023-04-25T11:31:26;28.20;52.10
17092;DHT22;8661;45.700;4.880;2023-04-25T11:33:53;28.20;53.30
17092;DHT22;8661;45.700;4.880;2023-04-25T11:36:20;27.80;53.00
17092;DHT22;8661;45.700;4.880;2023-04-25T11:38:47;27.40;54.00
17092;DHT22;8661;45.700;4.880;2023-04-25T11:41:14;28.30;52.90
17092;DHT22;8661;45.700;4.880;2023-04-25T11:43:40;29.10;51.10
17092;DHT22;8661;45.700;4.880;2023-04-25T11:46:10;29.40;51.30
17092;DHT22;8661;45.700;4.880;2023-04-25T11:48:38;28.70;51.80
17092;DHT22;8661;45.700;4.880;2023-04-25T11:51:05;27.80;51.90
17092;DHT22;8661;45.700;4.880;2023-04-25T11:53:32;26.90;52.50
17092;DHT22;8661;45.700;4.880;2023-04-25T11:55:59;26.40;53.40
17092;DHT22;8661;45.700;4.880;2023-04-25T11:58:26;25.00;54.60
17092;DHT22;8661;45.700;4.880;2023-04-25T12:00:53;25.50;56.00
17092;DHT22;8661;45.700;4.880;2023-04-25T12:03:25;25.30;55.20
17092;DHT22;8661;45.700;4.880;2023-04-25T12:06:02;25.70;56.80
17092;DHT22;8661;45.700;4.880;2023-04-25T12:08:30;26.90;55.90
17092;DHT22;8661;45.700;4.880;2023-04-25T12:10:58;28.10;54.10
17092;DHT22;8661;45.700;4.880;2023-04-25T12:13:25;28.70;52.30
17092;DHT22;8661;45.700;4.880;2023-04-25T12:15:54;29.00;52.10
17092;DHT22;8661;45.700;4.880;2023-04-25T12:18:25;29.40;51.10
17092;DHT22;8661;45.700;4.880;2023-04-25T12:20:52;29.30;50.20
17092;DHT22;8661;45.700;4.880;2023-04-25T12:23:25;28.70;51.40
17092;DHT22;8661;45.700;4.880;2023-04-25T12:25:53;28.90;50.80
17092;DHT22;8661;45.700;4.880;2023-04-25T12:28:22;29.30;51.90
17092;DHT22;8661;45.700;4.880;2023-04-25T12:30:57;28.80;51.20
17092;DHT22;8661;45.700;4.880;2023-04-25T12:33:26;28.20;51.20
17092;DHT22;8661;45.700;4.880;2023-04-25T12:35:54;28.70;51.40
17092;DHT22;8661;45.700;4.880;2023-04-25T12:38:23;29.20;50.60
17092;DHT22;8661;45.700;4.880;2023-04-25T12:40:49;28.60;50.90
17092;DHT22;8661;45.700;4.880;2023-04-25T12:43:16;28.30;51.50
17092;DHT22;8661;45.700;4.880;2023-04-25T12:45:43;27.50;51.10
17092;DHT22;8661;45.700;4.880;2023-04-25T12:48:10;26.80;52.30
17092;DHT22;8661;45.700;4.880;2023-04-25T12:50:39;26.10;53.10
17092;DHT22;8661;45.700;4.880;2023-04-25T12:53:06;26.10;53.90
17092;DHT22;8661;45.700;4.880;2023-04-25T12:55:33;25.80;53.40
17092;DHT22;8661;45.700;4.880;2023-04-25T12:58:00;25.40;53.70
17092;DHT22;8661;45.700;4.880;2023-04-25T13:00:28;25.10;54.00
17092;DHT22;8661;45.700;4.880;2023-04-25T13:02:55;25.30;55.10
17092;DHT22;8661;45.700;4.880;2023-04-25T13:05:22;25.70;54.20
17092;DHT22;8661;45.700;4.880;2023-04-25T13:07:50;25.90;54.80
17092;DHT22;8661;45.700;4.880;2023-04-25T13:10:17;25.80;53.20
17092;DHT22;8661;45.700;4.880;2023-04-25T13:12:44;25.10;54.00
17092;DHT22;8661;45.700;4.880;2023-04-25T13:15:12;24.90;53.80
17092;DHT22;8661;45.700;4.880;2023-04-25T13:17:41;24.60;54.80
17092;DHT22;8661;45.700;4.880;2023-04-25T13:20:09;24.30;54.40
17092;DHT22;8661;45.700;4.880;2023-04-25T13:22:37;24.10;54.80
17092;DHT22;8661;45.700;4.880;2023-04-25T13:25:06;24.00;54.60
17092;DHT22;8661;45.700;4.880;2023-04-25T13:27:35;23.70;54.10
17092;DHT22;8661;45.700;4.880;2023-04-25T13:30:03;24.60;55.20
17092;DHT22;8661;45.700;4.880;2023-04-25T13:32:32;25.40;54.20
17092;DHT22;8661;45.700;4.880;2023-04-25T13:34:59;25.90;53.10
17092;DHT22;8661;45.700;4.880;2023-04-25T13:37:26;25.90;53.00
17092;DHT22;8661;45.700;4.880;2023-04-25T13:39:53;26.20;54.10
17092;DHT22;8661;45.700;4.880;2023-04-25T13:42:23;26.30;52.90
17092;DHT22;8661;45.700;4.880;2023-04-25T13:44:50;25.90;52.40
17092;DHT22;8661;45.700;4.880;2023-04-25T13:47:17;26.10;52.80
17092;DHT22;8661;45.700;4.880;2023-04-25T13:49:43;25.90;53.90
17092;DHT22;8661;45.700;4.880;2023-04-25T13:52:10;25.60;53.40
17092;DHT22;8661;45.700;4.880;2023-04-25T13:54:37;24.50;53.40
17092;DHT22;8661;45.700;4.880;2023-04-25T13:57:04;23.50;54.50
17092;DHT22;8661;45.700;4.880;2023-04-25T13:59:32;23.10;55.80
17092;DHT22;8661;45.700;4.880;2023-04-25T14:01:59;23.30;55.30
17092;DHT22;8661;45.700;4.880;2023-04-25T14:04:26;23.60;55.40
17092;DHT22;8661;45.700;4.880;2023-04-25T14:06:53;24.20;54.60
17092;DHT22;8661;45.700;4.880;2023-04-25T14:09:20;24.90;54.50
17092;DHT22;8661;45.700;4.880;2023-04-25T14:11:51;25.20;53.60
17092;DHT22;8661;45.700;4.880;2023-04-25T14:14:17;24.80;53.10
17092;DHT22;8661;45.700;4.880;2023-04-25T14:16:46;24.00;53.10
17092;DHT22;8661;45.700;4.880;2023-04-25T14:19:13;23.20;53.70
17092;DHT22;8661;45.700;4.880;2023-04-25T14:21:41;23.10;54.70
17092;DHT22;8661;45.700;4.880;2023-04-25T14:24:08;24.00;54.70
17092;DHT22;8661;45.700;4.880;2023-04-25T14:26:36;24.40;53.10
17092;DHT22;8661;45.700;4.880;2023-04-25T14:29:04;24.10;53.20
17092;DHT22;8661;45.700;4.880;2023-04-25T14:31:32;23.50;54.60
17092;DHT22;8661;45.700;4.880;2023-04-25T14:34:01;23.30;55.80
17092;DHT22;8661;45.700;4.880;2023-04-25T14:36:28;23.40;56.20
17092;DHT22;8661;45.700;4.880;2023-04-25T14:38:56;23.20;54.20
17092;DHT22;8661;45.700;4.880;2023-04-25T14:41:23;22.60;53.80
17092;DHT22;8661;45.700;4.880;2023-04-25T14:43:50;23.80;54.30
17092;DHT22;8661;45.700;4.880;2023-04-25T14:46:18;25.50;52.90
17092;DHT22;8661;45.700;4.880;2023-04-25T14:48:48;26.80;51.50
17092;DHT22;8661;45.700;4.880;2023-04-25T14:51:16;27.10;50.80
17092;DHT22;8661;45.700;4.880;2023-04-25T14:53:43;26.40;51.00
17092;DHT22;8661;45.700;4.880;2023-04-25T14:56:10;25.30;51.30
17092;DHT22;8661;45.700;4.880;2023-04-25T14:58:38;25.30;52.30
17092;DHT22;8661;45.700;4.880;2023-04-25T15:01:05;25.10;52.10
17092;DHT22;8661;45.700;4.880;2023-04-25T15:03:33;24.60;52.70
17092;DHT22;8661;45.700;4.880;2023-04-25T15:06:00;24.00;53.40
17092;DHT22;8661;45.700;4.880;2023-04-25T15:08:28;23.60;54.70
17092;DHT22;8661;45.700;4.880;2023-04-25T15:10:56;23.80;54.30
17092;DHT22;8661;45.700;4.880;2023-04-25T15:13:23;23.80;53.70
17092;DHT22;8661;45.700;4.880;2023-04-25T15:15:50;23.60;53.50
17092;DHT22;8661;45.700;4.880;2023-04-25T15:18:20;23.60;53.90
17092;DHT22;8661;45.700;4.880;2023-04-25T15:20:48;23.30;54.50
17092;DHT22;8661;45.700;4.880;2023-04-25T15:23:15;22.90;53.80
17092;DHT22;8661;45.700;4.880;2023-04-25T15:25:44;22.90;54.20
17092;DHT22;8661;45.700;4.880;2023-04-25T15:28:11;22.60;54.00
17092;DHT22;8661;45.700;4.880;2023-04-25T15:30:39;22.10;55.10
17092;DHT22;8661;45.700;4.880;2023-04-25T15:33:06;22.10;55.60
17092;DHT22;8661;45.700;4.880;2023-04-25T15:35:33;22.00;55.10
17092;DHT22;8661;45.700;4.880;2023-04-25T15:38:00;21.90;54.70
17092;DHT22;8661;45.700;4.880;2023-04-25T15:40:27;21.50;55.70
17092;DHT22;8661;45.700;4.880;2023-04-25T15:42:55;21.10;56.00
17092;DHT22;8661;45.700;4.880;2023-04-25T15:45:23;20.90;56.80
17092;DHT22;8661;45.700;4.880;2023-04-25T15:47:50;20.70;56.80